createdAt,value
2023-02-23T00:02:11.523Z,83.78
2023-02-23T00:04:24.638Z,84.40
2023-02-23T00:06:41.829Z,84.57
2023-02-23T00:08:55.019Z,84.81
2023-02-23T00:11:09.232Z,85.68
2023-02-23T00:13:22.636Z,86.05
2023-02-23T00:15:35.701Z,86.39
2023-02-23T00:17:52.824Z,86.97
2023-02-23T00:20:12.482Z,87.23
2023-02-23T00:22:25.050Z,87.56
2023-02-23T00:24:39.168Z,88.07
2023-02-23T00:26:52.567Z,89.01
2023-02-23T00:29:07.089Z,89.37
2023-02-23T00:31:24.496Z,89.50
2023-02-23T00:33:37.737Z,89.71
2023-02-23T00:35:51.293Z,89.84
2023-02-23T00:38:04.456Z,90.07
2023-02-23T00:40:23.778Z,90.12
2023-02-23T00:42:36.950Z,90.18
2023-02-23T00:44:50.438Z,89.99
2023-02-23T00:47:03.230Z,89.80
2023-02-23T00:49:17.658Z,89.61
2023-02-23T00:51:32.229Z,89.51
2023-02-23T00:53:47.022Z,89.61
2023-02-23T00:56:00.129Z,89.29
2023-02-23T00:58:15.075Z,89.32
2023-02-23T01:00:28.316Z,89.57
2023-02-23T01:02:43.448Z,90.62
2023-02-23T01:04:56.901Z,91.25
2023-02-23T01:07:14.000Z,91.38
2023-02-23T01:09:30.211Z,91.56
2023-02-23T01:11:47.742Z,91.50
2023-02-23T01:14:02.744Z,91.86
2023-02-23T01:16:18.392Z,92.17
2023-02-23T01:18:31.627Z,92.31
2023-02-23T01:20:44.778Z,92.21
2023-02-23T01:22:57.622Z,92.36
2023-02-23T01:25:11.634Z,92.05
2023-02-23T01:27:25.022Z,92.38
2023-02-23T01:29:38.166Z,92.43
2023-02-23T01:31:53.797Z,92.56
2023-02-23T01:34:09.196Z,92.93
2023-02-23T01:36:24.075Z,92.80
2023-02-23T01:38:37.003Z,92.72
2023-02-23T01:40:51.424Z,92.79
2023-02-23T01:43:15.822Z,92.89
2023-02-23T01:45:45.226Z,93.59
2023-02-23T01:48:03.921Z,93.58
2023-02-23T01:50:17.681Z,93.81
2023-02-23T01:52:30.759Z,93.77
2023-02-23T01:54:51.653Z,93.86
2023-02-23T01:57:07.085Z,93.78
2023-02-23T01:59:21.088Z,93.64
2023-02-23T02:01:33.746Z,94.01
2023-02-23T02:03:49.319Z,93.93
2023-02-23T02:06:04.217Z,94.29
2023-02-23T02:08:17.771Z,94.55
2023-02-23T02:10:46.560Z,94.63
2023-02-23T02:13:02.002Z,94.73
2023-02-23T02:15:19.954Z,94.62
2023-02-23T02:17:44.518Z,94.98
2023-02-23T02:20:33.773Z,94.90
2023-02-23T02:23:19.196Z,95.04
2023-02-23T02:25:48.789Z,94.90
2023-02-23T02:28:28.238Z,94.93
2023-02-23T02:31:00.392Z,94.72
2023-02-23T02:33:45.170Z,94.81
2023-02-23T02:38:57.728Z,94.20
2023-02-23T02:41:18.218Z,94.18
2023-02-23T02:43:40.272Z,94.30
2023-02-23T02:45:58.508Z,93.84
2023-02-23T02:48:22.068Z,94.03
2023-02-23T02:50:45.658Z,93.82
2023-02-23T02:53:05.880Z,93.40
2023-02-23T02:55:26.090Z,93.51
2023-02-23T02:57:40.401Z,93.43
2023-02-23T03:00:11.647Z,93.25
2023-02-23T03:02:42.890Z,93.12
2023-02-23T03:05:12.419Z,93.17
2023-02-23T03:07:49.472Z,93.08
2023-02-23T03:10:23.176Z,93.31
2023-02-23T03:12:59.950Z,93.50
2023-02-23T03:15:51.935Z,93.48
2023-02-23T03:18:29.709Z,93.15
2023-02-23T03:21:09.807Z,93.36
2023-02-23T03:23:45.627Z,93.56
2023-02-23T03:26:26.612Z,93.68
2023-02-23T03:29:05.889Z,93.80
2023-02-23T03:31:43.400Z,93.98
2023-02-23T03:34:22.916Z,94.03
2023-02-23T03:37:00.103Z,95.66
2023-02-23T03:39:39.707Z,96.25
2023-02-23T03:42:12.687Z,96.58
2023-02-23T03:44:47.146Z,96.38
2023-02-23T03:47:20.850Z,96.22
2023-02-23T03:49:54.096Z,95.43
2023-02-23T03:52:29.980Z,95.52
2023-02-23T03:55:03.847Z,95.74
2023-02-23T03:57:37.229Z,95.57
2023-02-23T04:00:14.117Z,95.43
2023-02-23T04:02:44.652Z,95.14
2023-02-23T04:05:16.179Z,95.14
2023-02-23T04:07:46.466Z,95.00
2023-02-23T04:10:16.110Z,95.15
2023-02-23T04:12:52.866Z,95.18
2023-02-23T04:15:11.768Z,95.24
2023-02-23T04:17:32.871Z,95.52
2023-02-23T04:19:55.741Z,95.47
2023-02-23T04:22:09.439Z,95.79
2023-02-23T04:24:22.527Z,96.82
2023-02-23T04:26:35.510Z,97.59
2023-02-23T04:28:50.464Z,97.87
2023-02-23T04:31:03.413Z,98.13
2023-02-23T04:33:16.668Z,98.43
2023-02-23T04:35:30.973Z,98.38
2023-02-23T04:37:43.630Z,98.35
2023-02-23T04:39:56.321Z,97.98
2023-02-23T04:42:09.804Z,98.22
2023-02-23T04:44:22.462Z,98.01
2023-02-23T04:46:37.044Z,97.83
2023-02-23T04:48:50.205Z,97.54
2023-02-23T04:51:02.872Z,97.34
2023-02-23T04:53:15.909Z,97.02
2023-02-23T04:55:30.205Z,97.09
2023-02-23T04:57:43.062Z,96.72
2023-02-23T04:59:56.646Z,96.96
2023-02-23T05:02:09.402Z,96.90
2023-02-23T05:04:22.148Z,97.06
2023-02-23T05:06:35.277Z,97.04
2023-02-23T05:08:48.349Z,97.15
2023-02-23T05:11:01.167Z,96.71
2023-02-23T05:13:14.032Z,96.88
2023-02-23T05:15:26.814Z,96.63
2023-02-23T05:17:41.546Z,95.68
2023-02-23T05:19:55.001Z,95.73
2023-02-23T05:22:08.724Z,95.83
2023-02-23T05:24:21.585Z,95.77
2023-02-23T05:26:34.648Z,95.47
2023-02-23T05:28:48.109Z,95.31
2023-02-23T05:31:01.244Z,95.35
2023-02-23T05:33:17.325Z,95.02
2023-02-23T05:35:32.017Z,94.73
2023-02-23T05:37:45.821Z,94.08
2023-02-23T05:39:58.896Z,94.04
2023-02-23T05:42:12.383Z,94.44
2023-02-23T05:44:25.480Z,94.88
2023-02-23T05:46:38.535Z,94.42
2023-02-23T05:48:51.937Z,93.31
2023-02-23T05:51:10.010Z,93.65
2023-02-23T05:53:22.864Z,94.05
2023-02-23T05:55:35.717Z,94.21
2023-02-23T05:57:48.609Z,93.15
2023-02-23T06:00:01.503Z,92.45
2023-02-23T06:02:17.197Z,91.05
2023-02-23T06:04:30.299Z,91.11
2023-02-23T06:06:42.999Z,92.12
2023-02-23T06:08:56.056Z,92.57
2023-02-23T06:11:09.451Z,92.68
2023-02-23T06:13:22.304Z,92.48
2023-02-23T06:15:34.983Z,92.87
2023-02-23T06:17:47.905Z,92.17
2023-02-23T06:20:03.214Z,91.66
2023-02-23T06:22:18.505Z,91.63
2023-02-23T06:24:31.364Z,91.53
2023-02-23T06:26:44.653Z,90.64
2023-02-23T06:28:57.969Z,90.99
2023-02-23T06:31:11.228Z,90.79
2023-02-23T06:33:24.242Z,90.54
2023-02-23T06:35:37.733Z,90.95
2023-02-23T06:37:51.130Z,91.22
2023-02-23T06:40:04.556Z,90.69
2023-02-23T06:42:18.153Z,90.43
2023-02-23T06:44:30.831Z,89.61
2023-02-23T06:46:43.560Z,89.60
2023-02-23T06:49:00.934Z,89.23
2023-02-23T06:51:14.592Z,87.00
2023-02-23T06:53:27.694Z,89.11
2023-02-23T06:55:40.492Z,89.45
2023-02-23T06:57:55.365Z,88.64
2023-02-23T07:00:09.012Z,86.75
2023-02-23T07:02:22.002Z,88.03
2023-02-23T07:04:34.939Z,88.26
2023-02-23T07:06:49.046Z,87.98
2023-02-23T07:09:03.192Z,87.97
2023-02-23T07:11:17.771Z,85.40
2023-02-23T07:13:31.116Z,84.80
2023-02-23T07:15:44.485Z,84.93
2023-02-23T07:17:58.744Z,84.76
2023-02-23T07:20:14.556Z,84.63
2023-02-23T07:22:30.583Z,84.87
2023-02-23T07:24:44.268Z,85.55
2023-02-23T07:26:58.112Z,85.32
2023-02-23T07:29:11.186Z,85.64
2023-02-23T07:31:24.524Z,85.13
2023-02-23T07:33:37.351Z,84.57
2023-02-23T07:35:50.425Z,84.44
2023-02-23T07:38:03.360Z,84.44
2023-02-23T07:40:20.399Z,83.71
2023-02-23T07:42:33.180Z,83.28
2023-02-23T07:44:48.048Z,82.20
2023-02-23T07:47:01.346Z,81.36
2023-02-23T07:49:14.980Z,81.49
2023-02-23T07:51:27.725Z,81.84
2023-02-23T07:53:40.792Z,81.06
2023-02-23T07:56:01.951Z,79.86
2023-02-23T07:58:15.655Z,80.30
2023-02-23T08:00:28.991Z,80.03
2023-02-23T08:02:41.653Z,80.50
2023-02-23T08:04:56.073Z,80.23
2023-02-23T08:07:08.721Z,79.51
2023-02-23T08:09:21.953Z,80.17
2023-02-23T08:11:34.821Z,78.69
2023-02-23T08:13:47.769Z,78.09
2023-02-23T08:16:01.622Z,78.25
2023-02-23T08:18:14.445Z,77.05
2023-02-23T08:20:28.806Z,76.80
2023-02-23T08:22:49.302Z,77.59
2023-02-23T08:25:03.036Z,76.13
2023-02-23T08:27:16.872Z,76.53
2023-02-23T08:29:29.940Z,75.33
2023-02-23T08:31:43.192Z,76.24
2023-02-23T08:33:56.738Z,76.62
2023-02-23T08:36:10.388Z,77.14
2023-02-23T08:38:23.441Z,76.32
2023-02-23T08:40:36.273Z,75.56
2023-02-23T08:42:50.264Z,76.08
2023-02-23T08:45:03.423Z,75.16
2023-02-23T08:47:17.809Z,76.06
2023-02-23T08:49:32.278Z,75.63
2023-02-23T08:51:48.019Z,75.62
2023-02-23T08:54:01.876Z,75.16
2023-02-23T08:56:16.436Z,75.44
2023-02-23T08:58:29.687Z,74.12
2023-02-23T09:00:42.772Z,74.71
2023-02-23T09:02:55.928Z,74.62
2023-02-23T09:05:08.916Z,75.13
2023-02-23T09:07:24.237Z,74.56
2023-02-23T09:09:37.070Z,74.16
2023-02-23T09:11:49.829Z,74.43
2023-02-23T09:14:03.842Z,73.70
2023-02-23T09:16:17.153Z,74.24
2023-02-23T09:18:31.872Z,74.16
2023-02-23T09:20:47.290Z,73.99
2023-02-23T09:23:00.549Z,73.79
2023-02-23T09:25:15.813Z,74.23
2023-02-23T09:27:28.971Z,73.83
2023-02-23T09:29:43.358Z,73.53
2023-02-23T09:31:59.229Z,74.07
2023-02-23T09:34:13.948Z,73.93
2023-02-23T09:36:29.770Z,74.04
2023-02-23T09:38:42.790Z,74.27
2023-02-23T09:40:58.656Z,74.03
2023-02-23T09:43:17.486Z,73.76
2023-02-23T09:45:42.139Z,74.56
2023-02-23T09:48:09.176Z,74.23
2023-02-23T09:50:25.129Z,74.01
2023-02-23T09:52:46.819Z,74.29
2023-02-23T09:55:01.266Z,74.47
2023-02-23T09:57:19.943Z,74.66
2023-02-23T09:59:32.901Z,74.22
2023-02-23T10:02:01.378Z,73.97
2023-02-23T10:04:21.087Z,74.02
2023-02-23T10:06:34.629Z,73.97
2023-02-23T10:09:02.386Z,73.85
2023-02-23T10:11:26.910Z,73.66
2023-02-23T10:13:49.374Z,73.73
2023-02-23T10:16:06.654Z,73.54
2023-02-23T10:18:40.582Z,73.00
2023-02-23T10:21:06.696Z,73.08
2023-02-23T10:23:25.120Z,73.00
2023-02-23T10:25:44.165Z,73.00
2023-02-23T10:27:59.521Z,72.31
2023-02-23T10:30:23.114Z,71.83
2023-02-23T10:32:44.437Z,72.26
2023-02-23T10:34:59.704Z,72.81
2023-02-23T10:37:16.136Z,72.75
2023-02-23T10:39:29.298Z,72.11
2023-02-23T10:41:43.095Z,71.91
2023-02-23T10:43:58.741Z,71.48
2023-02-23T10:46:22.990Z,71.65
2023-02-23T10:48:44.449Z,71.80
2023-02-23T10:51:03.974Z,71.29
2023-02-23T10:53:25.430Z,71.00
2023-02-23T10:55:38.925Z,71.61
2023-02-23T10:57:54.295Z,71.45
2023-02-23T11:00:34.200Z,71.27
2023-02-23T11:02:48.870Z,71.03
2023-02-23T11:05:03.058Z,71.13
2023-02-23T11:07:21.943Z,70.22
2023-02-23T11:09:46.481Z,69.73
2023-02-23T11:12:08.422Z,70.36
2023-02-23T11:14:28.973Z,69.79
2023-02-23T11:16:45.272Z,68.94
2023-02-23T11:19:00.671Z,69.40
2023-02-23T11:21:24.708Z,69.60
2023-02-23T11:23:40.947Z,69.72
2023-02-23T11:25:56.524Z,69.44
2023-02-23T11:28:09.286Z,69.14
2023-02-23T11:30:30.582Z,69.22
2023-02-23T11:32:45.121Z,69.44
2023-02-23T11:35:33.961Z,69.35
2023-02-23T11:37:46.745Z,69.37
2023-02-23T11:40:01.333Z,68.17
2023-02-23T11:42:26.294Z,67.97
2023-02-23T11:44:39.260Z,68.15
2023-02-23T11:46:53.486Z,67.74
2023-02-23T11:49:08.183Z,67.50
2023-02-23T11:51:29.939Z,67.75
2023-02-23T11:53:49.569Z,67.84
2023-02-23T11:56:09.004Z,68.07
2023-02-23T11:58:30.261Z,67.33
2023-02-23T12:00:43.684Z,67.36
2023-02-23T12:03:00.751Z,67.42
2023-02-23T12:05:29.833Z,68.29
2023-02-23T12:07:48.283Z,68.35
2023-02-23T12:10:07.531Z,67.82
2023-02-23T12:12:24.917Z,67.87
2023-02-23T12:14:41.970Z,67.62
2023-02-23T12:16:58.784Z,67.78
2023-02-23T12:19:24.205Z,67.37
2023-02-23T12:21:42.821Z,67.10
2023-02-23T12:24:01.131Z,67.11
2023-02-23T12:26:21.421Z,66.31
2023-02-23T12:28:40.550Z,66.52
2023-02-23T12:30:58.745Z,66.70
2023-02-23T12:33:19.200Z,66.82
2023-02-23T12:35:42.448Z,67.06
2023-02-23T12:37:59.536Z,66.31
2023-02-23T12:40:22.648Z,66.34
2023-02-23T12:42:46.118Z,66.65
2023-02-23T12:45:02.952Z,66.82
2023-02-23T12:47:25.959Z,66.55
2023-02-23T12:49:45.145Z,65.96
2023-02-23T12:52:03.322Z,66.10
2023-02-23T12:54:18.833Z,66.19
2023-02-23T12:56:45.184Z,65.44
2023-02-23T12:59:09.778Z,65.78
2023-02-23T13:01:28.112Z,64.96
2023-02-23T13:03:58.486Z,64.91
2023-02-23T13:06:20.226Z,64.47
2023-02-23T13:08:39.386Z,65.25
2023-02-23T13:11:00.249Z,64.74
2023-02-23T13:13:25.322Z,63.98
2023-02-23T13:15:50.027Z,65.18
2023-02-23T13:18:09.122Z,64.71
2023-02-23T13:20:27.658Z,65.25
2023-02-23T13:22:46.964Z,64.66
2023-02-23T13:25:05.115Z,64.46
2023-02-23T13:27:26.744Z,64.59
2023-02-23T13:29:43.018Z,64.06
2023-02-23T13:31:57.095Z,64.30
2023-02-23T13:34:14.591Z,63.70
2023-02-23T13:36:29.468Z,64.25
2023-02-23T13:38:51.004Z,64.52
2023-02-23T13:41:12.737Z,64.01
2023-02-23T13:43:32.430Z,64.26
2023-02-23T13:45:56.840Z,64.40
2023-02-23T13:48:22.649Z,64.17
2023-02-23T13:50:39.395Z,64.04
2023-02-23T13:52:56.708Z,63.64
2023-02-23T13:55:46.974Z,64.40
2023-02-23T13:58:16.517Z,64.35
2023-02-23T14:00:30.013Z,64.27
2023-02-23T14:02:44.375Z,63.87
2023-02-23T14:04:59.980Z,63.70
2023-02-23T14:07:27.433Z,63.62
2023-02-23T14:09:41.582Z,63.96
2023-02-23T14:11:59.363Z,63.81
2023-02-23T14:14:14.896Z,63.43
2023-02-23T14:16:28.206Z,62.61
2023-02-23T14:18:53.423Z,63.28
2023-02-23T14:21:17.309Z,63.71
2023-02-23T14:23:39.774Z,63.94
2023-02-23T14:25:57.284Z,63.97
2023-02-23T14:28:33.905Z,63.28
2023-02-23T14:31:06.735Z,63.10
2023-02-23T14:33:53.381Z,62.86
2023-02-23T14:36:27.363Z,62.76
2023-02-23T14:38:48.230Z,63.16
2023-02-23T14:41:03.929Z,63.79
2023-02-23T14:43:51.850Z,62.83
2023-02-23T14:46:06.968Z,62.55
2023-02-23T14:48:20.930Z,62.41
2023-02-23T14:50:36.616Z,62.79
2023-02-23T14:52:49.707Z,62.54
2023-02-23T14:55:24.538Z,62.24
2023-02-23T14:57:42.767Z,62.22
2023-02-23T15:00:01.918Z,62.20
2023-02-23T15:02:21.235Z,62.47
2023-02-23T15:04:35.828Z,63.06
2023-02-23T15:06:49.995Z,63.02
2023-02-23T15:09:04.462Z,62.82
2023-02-23T15:11:20.126Z,62.72
2023-02-23T15:13:41.218Z,61.80
2023-02-23T15:15:55.534Z,62.04
2023-02-23T15:18:09.984Z,62.10
2023-02-23T15:20:29.705Z,62.00
2023-02-23T15:22:44.343Z,62.03
2023-02-23T15:24:59.734Z,62.39
2023-02-23T15:27:23.819Z,62.81
2023-02-23T15:29:39.224Z,62.56
2023-02-23T15:31:53.829Z,62.06
2023-02-23T15:34:06.898Z,61.75
2023-02-23T15:36:27.549Z,62.18
2023-02-23T15:38:44.798Z,62.40
2023-02-23T15:41:01.324Z,61.93
2023-02-23T15:43:16.255Z,61.85
2023-02-23T15:45:36.882Z,61.82
2023-02-23T15:47:50.286Z,61.84
2023-02-23T15:50:18.152Z,62.30
2023-02-23T15:52:34.156Z,61.85
2023-02-23T15:54:54.592Z,61.82
2023-02-23T15:57:15.274Z,61.70
2023-02-23T15:59:34.931Z,61.53
2023-02-23T16:01:51.402Z,60.94
2023-02-23T16:04:11.699Z,61.03
2023-02-23T16:06:35.120Z,61.50
2023-02-23T16:09:03.597Z,59.97
2023-02-23T16:11:20.831Z,59.62
2023-02-23T16:13:34.098Z,59.90
2023-02-23T16:15:47.664Z,58.20
2023-02-23T16:18:04.216Z,57.88
2023-02-23T16:20:26.849Z,57.71
2023-02-23T16:22:42.075Z,58.18
2023-02-23T16:25:02.885Z,57.50
2023-02-23T16:27:17.362Z,57.47
2023-02-23T16:29:42.492Z,56.74
2023-02-23T16:32:00.530Z,56.56
2023-02-23T16:34:27.536Z,54.68
2023-02-23T16:36:44.208Z,53.64
2023-02-23T16:39:08.347Z,52.80
2023-02-23T16:41:24.874Z,53.09
2023-02-23T16:43:39.383Z,54.13
2023-02-23T16:45:52.631Z,54.56
2023-02-23T16:48:05.863Z,55.93
2023-02-23T16:50:23.067Z,56.13
2023-02-23T16:52:36.115Z,54.79
2023-02-23T16:57:29.994Z,53.05
2023-02-23T16:59:43.346Z,51.57
2023-02-23T17:01:56.874Z,51.28
2023-02-23T17:04:13.191Z,49.97
2023-02-23T17:06:27.026Z,50.27
2023-02-23T17:08:45.947Z,48.98
2023-02-23T17:11:05.673Z,48.66
2023-02-23T17:13:24.288Z,49.06
2023-02-23T17:15:38.768Z,48.85
2023-02-23T17:17:54.317Z,48.75
2023-02-23T17:20:13.631Z,50.61
2023-02-23T17:22:27.044Z,50.02
2023-02-23T17:24:39.690Z,48.39
2023-02-23T17:26:52.554Z,48.09
2023-02-23T17:29:05.933Z,48.43
2023-02-23T17:31:25.556Z,49.54
2023-02-23T17:33:39.615Z,49.38
2023-02-23T17:35:52.498Z,49.99
2023-02-23T17:38:07.652Z,49.55
2023-02-23T17:40:27.181Z,50.06
2023-02-23T17:42:40.372Z,50.11
2023-02-23T17:44:54.465Z,50.89
2023-02-23T17:47:07.118Z,51.31
2023-02-23T17:49:19.988Z,52.34
2023-02-23T17:51:32.713Z,52.34
2023-02-23T17:53:45.995Z,52.62
2023-02-23T17:55:59.198Z,53.36
2023-02-23T17:58:11.872Z,53.01
2023-02-23T18:00:26.129Z,53.49
2023-02-23T18:02:39.428Z,54.10
2023-02-23T18:04:52.883Z,55.98
2023-02-23T18:07:05.822Z,54.98
2023-02-23T18:09:18.822Z,53.60
2023-02-23T18:11:31.465Z,54.99
2023-02-23T18:13:45.690Z,52.32
2023-02-23T18:16:02.847Z,50.47
2023-02-23T18:18:16.454Z,51.56
2023-02-23T18:20:29.071Z,51.62
2023-02-23T18:22:42.026Z,51.68
2023-02-23T18:24:57.297Z,51.40
2023-02-23T18:27:10.805Z,52.25
2023-02-23T18:29:23.826Z,51.58
2023-02-23T18:31:37.112Z,51.60
2023-02-23T18:33:51.163Z,51.40
2023-02-23T18:36:03.714Z,51.22
2023-02-23T18:38:18.676Z,51.07
2023-02-23T18:40:34.284Z,51.91
2023-02-23T18:42:47.451Z,51.76
2023-02-23T18:45:00.947Z,52.08
2023-02-23T18:47:14.187Z,52.10
2023-02-23T18:49:28.262Z,52.09
2023-02-23T18:51:42.532Z,52.71
2023-02-23T18:53:57.241Z,52.79
2023-02-23T18:56:14.805Z,53.01
2023-02-23T18:58:28.183Z,52.66
2023-02-23T19:00:45.556Z,51.40
2023-02-23T19:02:58.794Z,51.26
2023-02-23T19:05:13.992Z,51.82
2023-02-23T19:07:27.027Z,50.72
2023-02-23T19:09:41.949Z,49.95
2023-02-23T19:11:55.627Z,49.55
2023-02-23T19:14:10.668Z,49.47
2023-02-23T19:16:24.237Z,50.12
2023-02-23T19:18:37.479Z,48.95
2023-02-23T19:20:53.784Z,49.01
2023-02-23T19:23:07.610Z,48.65
2023-02-23T19:25:20.822Z,48.50
2023-02-23T19:27:35.411Z,48.61
2023-02-23T19:29:48.362Z,49.34
2023-02-23T19:32:01.558Z,48.75
2023-02-23T19:34:16.601Z,48.89
2023-02-23T19:36:32.782Z,49.38
2023-02-23T19:38:46.547Z,49.19
2023-02-23T19:41:00.723Z,49.78
2023-02-23T19:43:14.152Z,50.61
2023-02-23T19:45:27.742Z,49.76
2023-02-23T19:47:41.459Z,48.11
2023-02-23T19:49:54.826Z,48.98
2023-02-23T19:52:08.516Z,49.97
2023-02-23T19:54:21.067Z,49.80
2023-02-23T19:56:34.414Z,49.58
2023-02-23T19:58:48.398Z,47.70
2023-02-23T20:01:06.328Z,48.43
2023-02-23T20:03:21.024Z,46.91
2023-02-23T20:05:34.202Z,47.87
2023-02-23T20:07:47.494Z,47.74
2023-02-23T20:10:00.379Z,48.07
2023-02-23T20:12:13.833Z,49.15
2023-02-23T20:14:27.927Z,48.88
2023-02-23T20:16:40.633Z,47.97
2023-02-23T20:18:55.602Z,47.64
2023-02-23T20:21:13.876Z,46.91
2023-02-23T20:23:27.076Z,47.38
2023-02-23T20:25:44.527Z,47.44
2023-02-23T20:27:58.066Z,47.58
2023-02-23T20:30:15.655Z,48.09
2023-02-23T20:32:28.795Z,48.04
2023-02-23T20:34:41.811Z,47.07
2023-02-23T20:36:55.683Z,47.03
2023-02-23T20:39:10.339Z,46.50
2023-02-23T20:41:26.030Z,46.98
2023-02-23T20:43:40.133Z,48.08
2023-02-23T20:45:53.088Z,47.89
2023-02-23T20:48:06.125Z,47.64
2023-02-23T20:50:19.488Z,47.94
2023-02-23T20:52:32.983Z,48.49
2023-02-23T20:54:46.210Z,48.10
2023-02-23T20:57:08.686Z,48.25
2023-02-23T20:59:21.598Z,48.09
2023-02-23T21:01:35.193Z,47.73
2023-02-23T21:03:51.149Z,47.76
2023-02-23T21:06:06.736Z,47.62
2023-02-23T21:08:19.493Z,48.63
2023-02-23T21:10:35.776Z,47.21
2023-02-23T21:12:48.256Z,47.09
2023-02-23T21:15:01.418Z,46.99
2023-02-23T21:17:15.441Z,46.47
2023-02-23T21:19:28.244Z,47.06
2023-02-23T21:21:44.739Z,46.95
2023-02-23T21:23:58.241Z,47.86
2023-02-23T21:26:15.332Z,46.78
2023-02-23T21:28:28.631Z,45.50
2023-02-23T21:30:41.749Z,45.24
2023-02-23T21:32:56.305Z,45.37
2023-02-23T21:35:10.652Z,46.74
2023-02-23T21:37:23.651Z,46.34
2023-02-23T21:39:38.030Z,46.79
2023-02-23T21:41:50.813Z,46.82
2023-02-23T21:44:03.745Z,45.79
2023-02-23T21:46:18.433Z,45.64
2023-02-23T21:48:32.661Z,45.55
2023-02-23T21:50:45.682Z,46.37
2023-02-23T21:53:01.456Z,46.18
2023-02-23T21:55:23.831Z,45.45
2023-02-23T21:57:34.594Z,46.11
2023-02-23T21:59:47.860Z,46.84
2023-02-23T22:02:01.007Z,46.00
2023-02-23T22:04:16.810Z,46.18
2023-02-23T22:06:31.662Z,46.46
2023-02-23T22:08:46.028Z,46.12
2023-02-23T22:10:59.741Z,46.11
2023-02-23T22:13:12.823Z,46.05
2023-02-23T22:15:30.206Z,45.75
2023-02-23T22:17:43.119Z,46.50
2023-02-23T22:19:58.467Z,46.46
2023-02-23T22:22:12.548Z,46.87
2023-02-23T22:24:25.030Z,45.85
2023-02-23T22:26:38.874Z,46.22
2023-02-23T22:28:51.665Z,47.13
2023-02-23T22:31:09.880Z,46.91
2023-02-23T22:33:23.167Z,47.16
2023-02-23T22:35:36.628Z,47.58
2023-02-23T22:37:49.714Z,48.21
2023-02-23T22:40:16.013Z,47.48
2023-02-23T22:42:36.466Z,47.00
2023-02-23T22:44:49.656Z,47.44
2023-02-23T22:47:02.886Z,46.60
2023-02-23T22:49:20.681Z,46.81
2023-02-23T22:51:33.889Z,46.48
2023-02-23T22:53:47.788Z,45.74
2023-02-23T22:56:01.146Z,45.67
2023-02-23T22:58:16.276Z,46.37
2023-02-23T23:00:31.296Z,45.55
2023-02-23T23:02:44.388Z,45.85
2023-02-23T23:04:58.414Z,46.32
2023-02-23T23:07:11.607Z,46.25
2023-02-23T23:09:24.144Z,44.87
2023-02-23T23:11:37.501Z,46.30
2023-02-23T23:13:52.400Z,46.17
2023-02-23T23:16:16.858Z,46.04
2023-02-23T23:18:38.918Z,46.39
2023-02-23T23:20:51.708Z,46.01
2023-02-23T23:23:08.231Z,45.35
2023-02-23T23:25:24.822Z,45.69
2023-02-23T23:27:38.302Z,45.61
2023-02-23T23:29:52.000Z,45.49
2023-02-23T23:32:07.970Z,45.30
2023-02-23T23:34:22.623Z,45.72
2023-02-23T23:36:38.188Z,45.37
2023-02-23T23:38:52.299Z,45.67
2023-02-23T23:41:14.787Z,46.11
2023-02-23T23:43:27.509Z,45.33
2023-02-23T23:45:43.289Z,45.90
2023-02-23T23:47:56.343Z,46.03
2023-02-23T23:50:11.810Z,46.18
2023-02-23T23:52:29.671Z,46.24
2023-02-23T23:54:43.992Z,46.53
2023-02-23T23:56:57.277Z,46.23
2023-02-23T23:59:13.465Z,46.40
